createdAt,value
2022-10-03T00:02:09.877Z,0.10
2022-10-03T00:04:48.929Z,0.10
2022-10-03T00:08:07.285Z,0.10
2022-10-03T00:10:41.694Z,0.13
2022-10-03T00:13:31.536Z,0.10
2022-10-03T00:16:09.387Z,0.10
2022-10-03T00:19:08.275Z,0.17
2022-10-03T00:21:41.191Z,0.10
2022-10-03T00:24:21.606Z,0.10
2022-10-03T00:26:52.467Z,0.10
2022-10-03T00:29:26.314Z,0.10
2022-10-03T00:32:01.733Z,0.20
2022-10-03T00:34:48.147Z,0.30
2022-10-03T00:37:48.121Z,0.20
2022-10-03T00:40:39.782Z,0.10
2022-10-03T00:43:15.995Z,0.13
2022-10-03T00:46:04.188Z,0.10
2022-10-03T00:48:49.712Z,0.10
2022-10-03T00:51:19.390Z,0.10
2022-10-03T00:53:51.951Z,0.10
2022-10-03T00:56:24.424Z,0.17
2022-10-03T00:59:12.873Z,0.13
2022-10-03T01:01:50.177Z,0.10
2022-10-03T01:04:35.648Z,0.20
2022-10-03T01:07:24.598Z,0.10
2022-10-03T01:10:02.963Z,0.17
2022-10-03T01:12:35.578Z,0.10
2022-10-03T01:15:29.348Z,1.05
2022-10-03T01:18:30.325Z,0.20
2022-10-03T01:21:25.114Z,0.05
2022-10-03T01:24:25.536Z,0.10
2022-10-03T01:26:58.043Z,0.30
2022-10-03T01:30:09.153Z,0.05
2022-10-03T01:32:49.967Z,0.10
2022-10-03T01:35:31.595Z,0.10
2022-10-03T01:38:20.852Z,0.08
2022-10-03T01:41:09.431Z,0.10
2022-10-03T01:43:50.391Z,0.03
2022-10-03T01:46:33.526Z,0.20
2022-10-03T01:49:06.682Z,0.20
2022-10-03T01:51:51.928Z,0.10
2022-10-03T01:57:16.231Z,0.05
2022-10-03T02:00:08.733Z,0.20
2022-10-03T02:02:58.670Z,0.10
2022-10-03T02:05:55.854Z,0.20
2022-10-03T02:08:41.008Z,0.10
2022-10-03T02:13:45.578Z,0.10
2022-10-03T02:16:31.128Z,0.10
2022-10-03T02:19:13.393Z,0.52
2022-10-03T02:21:49.518Z,0.30
2022-10-03T02:24:16.130Z,0.10
2022-10-03T02:27:25.711Z,0.13
2022-10-03T02:30:09.569Z,0.20
2022-10-03T02:32:44.930Z,0.20
2022-10-03T02:35:49.278Z,0.22
2022-10-03T02:38:27.189Z,0.08
2022-10-03T02:41:16.713Z,0.20
2022-10-03T02:44:11.818Z,0.22
2022-10-03T02:47:16.111Z,0.20
2022-10-03T02:50:01.041Z,0.10
2022-10-03T02:53:07.707Z,0.10
2022-10-03T02:55:55.263Z,0.10
2022-10-03T02:58:36.740Z,0.20
2022-10-03T03:01:43.024Z,0.20
2022-10-03T03:04:46.855Z,0.20
2022-10-03T03:07:19.911Z,0.20
2022-10-03T03:10:04.871Z,0.70
2022-10-03T03:13:16.307Z,0.13
2022-10-03T03:16:04.568Z,0.10
2022-10-03T03:19:00.436Z,0.10
2022-10-03T03:21:32.114Z,0.20
2022-10-03T03:24:02.387Z,0.20
2022-10-03T03:26:41.898Z,0.17
2022-10-03T03:29:23.927Z,0.20
2022-10-03T03:32:23.046Z,0.10
2022-10-03T03:34:59.487Z,0.30
2022-10-03T03:37:41.436Z,0.38
2022-10-03T03:40:29.674Z,0.10
2022-10-03T03:43:02.130Z,0.20
2022-10-03T03:45:54.831Z,1.60
2022-10-03T03:49:01.718Z,0.32
2022-10-03T03:51:51.602Z,0.20
2022-10-03T03:54:40.316Z,0.20
2022-10-03T03:57:25.797Z,0.30
2022-10-03T04:00:03.917Z,0.20
2022-10-03T04:02:42.501Z,0.30
2022-10-03T04:05:40.879Z,0.45
2022-10-03T04:08:13.385Z,0.32
2022-10-03T04:10:55.975Z,0.30
2022-10-03T04:14:10.356Z,0.30
2022-10-03T04:17:15.015Z,0.50
2022-10-03T04:19:54.146Z,0.25
2022-10-03T04:22:58.589Z,0.45
2022-10-03T04:25:28.225Z,1.20
2022-10-03T04:28:04.601Z,0.28
2022-10-03T04:30:46.355Z,0.40
2022-10-03T04:33:25.617Z,0.70
2022-10-03T04:36:15.331Z,0.40
2022-10-03T04:39:04.825Z,0.40
2022-10-03T04:41:43.062Z,0.40
2022-10-03T04:44:43.592Z,0.52
2022-10-03T04:47:26.574Z,0.55
2022-10-03T04:50:03.252Z,0.47
2022-10-03T04:53:02.330Z,0.60
2022-10-03T04:55:50.210Z,0.60
2022-10-03T04:58:36.239Z,0.55
2022-10-03T05:01:18.971Z,0.50
2022-10-03T05:03:48.669Z,0.50
2022-10-03T05:06:49.330Z,0.65
2022-10-03T05:09:37.525Z,0.82
2022-10-03T05:12:17.291Z,0.40
2022-10-03T05:14:49.920Z,0.70
2022-10-03T05:17:28.259Z,0.52
2022-10-03T05:20:14.531Z,0.70
2022-10-03T05:22:52.124Z,0.40
2022-10-03T05:25:29.158Z,0.63
2022-10-03T05:28:04.612Z,0.55
2022-10-03T05:30:53.463Z,0.40
2022-10-03T05:33:34.397Z,0.60
2022-10-03T05:36:12.230Z,0.98
2022-10-03T05:39:22.908Z,1.73
2022-10-03T05:42:22.589Z,1.00
2022-10-03T05:44:58.796Z,0.93
2022-10-03T05:47:45.622Z,0.90
2022-10-03T05:50:18.130Z,0.85
2022-10-03T05:52:45.569Z,0.95
2022-10-03T05:55:33.085Z,0.90
2022-10-03T05:58:28.204Z,0.90
2022-10-03T06:01:07.190Z,2.28
2022-10-03T06:03:46.424Z,1.33
2022-10-03T06:06:34.860Z,0.70
2022-10-03T06:09:38.986Z,1.05
2022-10-03T06:12:11.384Z,0.70
2022-10-03T06:15:08.634Z,0.80
2022-10-03T06:17:58.270Z,0.60
2022-10-03T06:20:43.832Z,0.70
2022-10-03T06:23:58.158Z,0.57
2022-10-03T06:26:45.404Z,0.50
2022-10-03T06:29:36.702Z,0.60
2022-10-03T06:32:05.973Z,0.50
2022-10-03T06:35:09.876Z,0.75
2022-10-03T06:37:45.541Z,0.63
2022-10-03T06:40:18.180Z,1.13
2022-10-03T06:43:15.092Z,0.90
2022-10-03T06:46:17.755Z,0.80
2022-10-03T06:49:10.336Z,1.23
2022-10-03T06:51:55.392Z,1.30
2022-10-03T06:54:46.346Z,0.90
2022-10-03T06:57:38.145Z,1.00
2022-10-03T07:00:21.742Z,1.00
2022-10-03T07:03:15.363Z,0.80
2022-10-03T07:06:00.771Z,0.85
2022-10-03T07:09:06.438Z,0.90
2022-10-03T07:11:55.914Z,0.88
2022-10-03T07:14:41.805Z,0.90
2022-10-03T07:17:14.982Z,1.52
2022-10-03T07:19:44.744Z,0.85
2022-10-03T07:22:32.531Z,0.98
2022-10-03T07:25:15.038Z,1.33
2022-10-03T07:27:56.739Z,0.98
2022-10-03T07:30:36.072Z,1.13
2022-10-03T07:33:28.996Z,1.20
2022-10-03T07:36:29.191Z,1.10
2022-10-03T07:39:17.031Z,1.15
2022-10-03T07:42:02.060Z,1.70
2022-10-03T07:44:45.998Z,1.50
2022-10-03T07:47:49.811Z,1.20
2022-10-03T07:50:30.288Z,1.33
2022-10-03T07:53:43.517Z,1.30
2022-10-03T07:56:20.151Z,1.10
2022-10-03T07:58:54.816Z,1.27
2022-10-03T08:01:45.626Z,0.95
2022-10-03T08:04:44.434Z,1.13
2022-10-03T08:07:29.628Z,1.38
2022-10-03T08:13:07.321Z,1.23
2022-10-03T08:15:53.394Z,1.00
2022-10-03T08:18:52.023Z,1.00
2022-10-03T08:21:50.784Z,1.10
2022-10-03T08:24:35.890Z,1.20
2022-10-03T08:27:08.263Z,1.40
2022-10-03T08:30:22.731Z,1.15
2022-10-03T08:32:59.636Z,1.05
2022-10-03T08:35:57.113Z,1.60
2022-10-03T08:38:51.511Z,1.60
2022-10-03T08:41:31.149Z,1.20
2022-10-03T08:44:28.192Z,1.00
2022-10-03T08:47:08.787Z,1.40
2022-10-03T08:49:44.367Z,1.52
2022-10-03T08:52:35.271Z,1.40
2022-10-03T08:55:26.868Z,1.10
2022-10-03T08:58:06.175Z,1.02
2022-10-03T09:00:52.872Z,1.83
2022-10-03T09:03:50.128Z,1.38
2022-10-03T09:07:15.412Z,1.20
2022-10-03T09:09:52.215Z,1.10
2022-10-03T09:12:42.857Z,1.75
2022-10-03T09:15:48.793Z,1.23
2022-10-03T09:20:59.533Z,0.90
2022-10-03T09:23:53.947Z,0.80
2022-10-03T09:26:32.353Z,1.17
2022-10-03T09:29:11.095Z,0.70
2022-10-03T09:31:46.800Z,0.68
2022-10-03T09:34:22.580Z,0.68
2022-10-03T09:37:20.169Z,0.75
2022-10-03T09:40:15.447Z,0.80
2022-10-03T09:43:01.710Z,0.60
2022-10-03T09:46:04.030Z,0.60
2022-10-03T09:48:58.728Z,0.25
2022-10-03T09:51:49.352Z,0.40
2022-10-03T09:54:54.044Z,0.50
2022-10-03T09:58:01.722Z,0.47
2022-10-03T10:00:56.454Z,0.32
2022-10-03T10:03:42.014Z,0.40
2022-10-03T10:06:20.463Z,0.30
2022-10-03T10:09:13.831Z,0.40
2022-10-03T10:12:18.925Z,0.30
2022-10-03T10:14:57.246Z,0.47
2022-10-03T10:17:32.989Z,0.43
2022-10-03T10:20:16.952Z,0.50
2022-10-03T10:23:18.695Z,0.63
2022-10-03T10:26:12.790Z,0.55
2022-10-03T10:29:03.794Z,0.40
2022-10-03T10:31:55.228Z,0.50
2022-10-03T10:34:50.652Z,0.52
2022-10-03T10:37:33.411Z,0.45
2022-10-03T10:40:27.267Z,0.60
2022-10-03T10:43:24.452Z,0.60
2022-10-03T10:46:20.093Z,0.47
2022-10-03T10:49:24.029Z,0.68
2022-10-03T10:52:12.372Z,0.40
2022-10-03T10:54:51.338Z,0.50
2022-10-03T10:57:43.254Z,0.60
2022-10-03T11:00:32.642Z,0.30
2022-10-03T11:03:26.968Z,0.35
2022-10-03T11:06:18.372Z,0.50
2022-10-03T11:09:12.829Z,0.50
2022-10-03T11:12:10.296Z,0.70
2022-10-03T11:14:59.267Z,0.63
2022-10-03T11:18:11.794Z,0.52
2022-10-03T11:21:15.310Z,0.47
2022-10-03T11:24:00.418Z,0.73
2022-10-03T11:29:15.051Z,0.50
2022-10-03T11:31:47.305Z,0.60
2022-10-03T11:34:38.655Z,0.40
2022-10-03T11:37:50.657Z,0.40
2022-10-03T11:40:28.497Z,0.47
2022-10-03T11:43:22.730Z,0.82
2022-10-03T11:46:02.184Z,0.85
2022-10-03T11:48:43.429Z,0.63
2022-10-03T11:51:19.154Z,0.30
2022-10-03T11:54:29.480Z,0.50
2022-10-03T11:57:08.842Z,0.50
2022-10-03T11:59:53.865Z,0.57
2022-10-03T12:02:40.211Z,0.55
2022-10-03T12:05:29.175Z,0.75
2022-10-03T12:08:38.201Z,0.60
2022-10-03T12:11:19.964Z,0.50
2022-10-03T12:14:12.584Z,0.50
2022-10-03T12:17:06.955Z,0.70
2022-10-03T12:19:54.653Z,0.77
2022-10-03T12:22:48.198Z,0.40
2022-10-03T12:25:23.892Z,0.47
2022-10-03T12:28:01.115Z,0.55
2022-10-03T12:30:37.718Z,0.75
2022-10-03T12:33:21.825Z,0.50
2022-10-03T12:36:15.505Z,0.70
2022-10-03T12:38:56.652Z,0.63
2022-10-03T12:41:29.373Z,0.40
2022-10-03T12:44:10.961Z,0.40
2022-10-03T12:47:08.396Z,0.60
2022-10-03T12:49:49.941Z,0.70
2022-10-03T12:52:28.230Z,0.70
2022-10-03T12:55:22.170Z,0.75
2022-10-03T12:58:07.127Z,0.60
2022-10-03T13:00:48.336Z,0.70
2022-10-03T13:03:19.219Z,1.10
2022-10-03T13:06:14.628Z,0.80
2022-10-03T13:08:53.259Z,0.88
2022-10-03T13:11:38.793Z,0.70
2022-10-03T13:14:22.717Z,0.70
2022-10-03T13:17:20.187Z,0.98
2022-10-03T13:20:01.612Z,0.85
2022-10-03T13:22:36.205Z,0.70
2022-10-03T13:25:31.229Z,1.10
2022-10-03T13:28:31.141Z,0.90
2022-10-03T13:31:19.788Z,1.00
2022-10-03T13:34:01.828Z,0.80
2022-10-03T13:36:40.342Z,0.90
2022-10-03T13:39:39.156Z,0.80
2022-10-03T13:42:28.789Z,0.73
2022-10-03T13:45:01.127Z,1.13
2022-10-03T13:47:44.741Z,0.77
2022-10-03T13:50:23.610Z,0.90
2022-10-03T13:53:09.717Z,0.90
2022-10-03T13:55:57.499Z,0.68
2022-10-03T13:59:32.475Z,1.10
2022-10-03T14:02:17.421Z,1.42
2022-10-03T14:04:53.452Z,1.27
2022-10-03T14:07:38.283Z,1.08
2022-10-03T14:10:26.621Z,2.63
2022-10-03T14:13:16.995Z,1.42
2022-10-03T14:15:50.066Z,1.80
2022-10-03T14:18:30.809Z,0.77
2022-10-03T14:21:12.751Z,0.90
2022-10-03T14:23:57.084Z,0.73
2022-10-03T14:26:32.407Z,0.93
2022-10-03T14:29:13.390Z,0.85
2022-10-03T14:32:01.510Z,0.90
2022-10-03T14:34:28.178Z,0.80
2022-10-03T14:37:11.840Z,1.00
2022-10-03T14:39:58.556Z,0.82
2022-10-03T14:42:40.382Z,1.13
2022-10-03T14:45:11.447Z,0.93
2022-10-03T14:47:41.934Z,1.00
2022-10-03T14:50:18.125Z,0.90
2022-10-03T14:53:00.364Z,1.00
2022-10-03T14:55:32.527Z,0.90
2022-10-03T14:58:16.987Z,1.10
2022-10-03T15:00:47.770Z,1.08
2022-10-03T15:03:17.600Z,1.10
2022-10-03T15:05:53.454Z,1.30
2022-10-03T15:08:21.053Z,1.30
2022-10-03T15:10:50.890Z,1.17
2022-10-03T15:13:19.833Z,1.20
2022-10-03T15:15:48.493Z,1.42
2022-10-03T15:18:18.188Z,1.10
2022-10-03T15:20:47.874Z,1.30
2022-10-03T15:23:38.714Z,1.30
2022-10-03T15:26:13.671Z,1.17
2022-10-03T15:28:45.321Z,1.13
2022-10-03T15:31:36.688Z,1.20
2022-10-03T15:34:16.387Z,1.13
2022-10-03T15:36:50.728Z,1.40
2022-10-03T15:39:40.584Z,1.60
2022-10-03T15:42:10.020Z,1.10
2022-10-03T15:44:39.635Z,1.83
2022-10-03T15:47:09.640Z,1.20
2022-10-03T15:50:09.919Z,1.10
2022-10-03T15:53:35.476Z,1.58
2022-10-03T15:56:15.524Z,1.60
2022-10-03T15:58:52.808Z,1.70
2022-10-03T16:01:27.358Z,1.50
2022-10-03T16:04:04.699Z,1.55
2022-10-03T16:07:07.846Z,2.70
2022-10-03T16:10:05.414Z,1.30
2022-10-03T16:12:41.124Z,1.30
2022-10-03T16:15:15.074Z,1.25
2022-10-03T16:17:56.316Z,1.15
2022-10-03T16:20:34.968Z,1.48
2022-10-03T16:23:16.446Z,1.02
2022-10-03T16:25:48.731Z,1.40
2022-10-03T16:28:21.092Z,1.58
2022-10-03T16:30:58.145Z,1.52
2022-10-03T16:33:35.409Z,1.60
2022-10-03T16:36:08.508Z,1.40
2022-10-03T16:38:42.603Z,1.55
2022-10-03T16:41:09.170Z,1.73
2022-10-03T16:43:35.999Z,1.42
2022-10-03T16:46:09.819Z,1.38
2022-10-03T16:48:55.471Z,2.22
2022-10-03T16:51:36.144Z,1.45
2022-10-03T16:54:04.368Z,1.60
2022-10-03T16:56:37.249Z,1.30
2022-10-03T16:59:11.193Z,1.42
2022-10-03T17:01:53.028Z,1.60
2022-10-03T17:04:26.068Z,1.50
2022-10-03T17:06:59.709Z,1.58
2022-10-03T17:09:44.853Z,1.20
2022-10-03T17:12:53.150Z,1.52
2022-10-03T17:15:24.251Z,2.33
2022-10-03T17:18:00.012Z,1.45
2022-10-03T17:20:48.056Z,1.40
2022-10-03T17:23:30.366Z,1.70
2022-10-03T17:26:05.365Z,1.80
2022-10-03T17:28:39.170Z,1.70
2022-10-03T17:31:28.744Z,1.52
2022-10-03T17:34:01.743Z,1.73
2022-10-03T17:36:43.381Z,1.70
2022-10-03T17:39:46.082Z,1.77
2022-10-03T17:42:27.946Z,2.00
2022-10-03T17:45:16.853Z,1.73
2022-10-03T17:48:09.417Z,1.80
2022-10-03T17:50:57.990Z,1.88
2022-10-03T17:53:35.174Z,2.05
2022-10-03T17:56:10.466Z,2.15
2022-10-03T17:58:45.598Z,1.98
2022-10-03T18:01:20.129Z,1.75
2022-10-03T18:04:04.905Z,1.58
2022-10-03T18:06:42.775Z,2.13
2022-10-03T18:09:15.482Z,1.90
2022-10-03T18:11:43.926Z,1.75
2022-10-03T18:14:28.976Z,2.35
2022-10-03T18:17:06.987Z,2.17
2022-10-03T18:19:41.722Z,2.10
2022-10-03T18:22:22.047Z,1.90
2022-10-03T18:24:56.721Z,1.90
2022-10-03T18:27:37.792Z,2.17
2022-10-03T18:30:19.537Z,1.98
2022-10-03T18:32:48.519Z,2.03
2022-10-03T18:35:22.336Z,2.20
2022-10-03T18:38:00.913Z,2.13
2022-10-03T18:40:53.344Z,2.15
2022-10-03T18:43:27.318Z,2.00
2022-10-03T18:46:04.029Z,2.43
2022-10-03T18:51:50.716Z,1.63
2022-10-03T18:54:17.853Z,1.90
2022-10-03T18:56:48.289Z,2.08
2022-10-03T18:59:19.913Z,2.17
2022-10-03T19:01:56.007Z,2.55
2022-10-03T19:04:37.757Z,2.70
2022-10-03T19:07:19.777Z,2.90
2022-10-03T19:10:03.302Z,2.95
2022-10-03T19:12:35.720Z,2.20
2022-10-03T19:15:27.574Z,2.17
2022-10-03T19:18:11.405Z,2.22
2022-10-03T19:20:43.421Z,2.50
2022-10-03T19:23:26.999Z,3.10
2022-10-03T19:25:57.446Z,2.03
2022-10-03T19:28:35.522Z,2.15
2022-10-03T19:31:35.986Z,1.90
2022-10-03T19:34:06.199Z,1.67
2022-10-03T19:36:38.669Z,2.50
2022-10-03T19:39:06.203Z,2.47
2022-10-03T19:41:40.785Z,2.13
2022-10-03T19:46:52.490Z,2.83
2022-10-03T19:49:28.521Z,2.58
2022-10-03T19:52:11.522Z,3.00
2022-10-03T19:55:10.363Z,2.92
2022-10-03T19:57:36.951Z,2.40
2022-10-03T20:00:15.572Z,2.22
2022-10-03T20:02:44.185Z,2.20
2022-10-03T20:05:19.729Z,1.98
2022-10-03T20:07:56.453Z,1.70
2022-10-03T20:10:52.965Z,2.20
2022-10-03T20:13:19.898Z,2.15
2022-10-03T20:15:50.448Z,2.40
2022-10-03T20:18:34.596Z,2.22
2022-10-03T20:21:04.072Z,2.30
2022-10-03T20:23:33.509Z,2.25
2022-10-03T20:26:17.106Z,2.20
2022-10-03T20:28:58.902Z,2.25
2022-10-03T20:31:28.637Z,2.33
2022-10-03T20:33:58.963Z,2.58
2022-10-03T20:36:38.546Z,2.28
2022-10-03T20:39:15.873Z,2.40
2022-10-03T20:41:42.702Z,2.30
2022-10-03T20:44:34.409Z,2.58
2022-10-03T20:47:22.530Z,1.77
2022-10-03T20:50:18.366Z,2.03
2022-10-03T20:52:52.048Z,1.90
2022-10-03T20:55:23.991Z,2.15
2022-10-03T20:57:55.844Z,1.67
2022-10-03T21:00:25.045Z,2.20
2022-10-03T21:03:29.311Z,2.10
2022-10-03T21:05:59.036Z,2.05
2022-10-03T21:08:41.389Z,1.80
2022-10-03T21:11:11.009Z,2.20
2022-10-03T21:14:15.120Z,2.10
2022-10-03T21:16:49.047Z,1.90
2022-10-03T21:19:23.311Z,2.00
2022-10-03T21:21:57.745Z,1.92
2022-10-03T21:24:39.629Z,2.28
2022-10-03T21:27:13.430Z,2.63
2022-10-03T21:29:51.904Z,2.38
2022-10-03T21:32:32.950Z,2.42
2022-10-03T21:35:02.885Z,2.58
2022-10-03T21:37:41.469Z,2.13
2022-10-03T21:40:47.042Z,2.40
2022-10-03T21:43:41.466Z,2.38
2022-10-03T21:46:22.878Z,1.70
2022-10-03T21:49:01.473Z,1.90
2022-10-03T21:51:42.005Z,2.40
2022-10-03T21:54:27.480Z,2.25
2022-10-03T21:57:01.063Z,2.15
2022-10-03T21:59:42.810Z,1.77
2022-10-03T22:02:47.750Z,1.85
2022-10-03T22:05:40.936Z,2.10
2022-10-03T22:08:25.521Z,2.17
2022-10-03T22:11:30.846Z,1.83
2022-10-03T22:14:22.896Z,2.70
2022-10-03T22:17:13.908Z,2.25
2022-10-03T22:19:50.586Z,2.40
2022-10-03T22:22:32.680Z,2.13
2022-10-03T22:25:28.486Z,2.00
2022-10-03T22:28:16.476Z,1.90
2022-10-03T22:31:12.701Z,2.10
2022-10-03T22:34:06.957Z,2.00
2022-10-03T22:36:36.947Z,2.20
2022-10-03T22:39:10.187Z,2.13
2022-10-03T22:41:39.834Z,1.75
2022-10-03T22:44:09.987Z,1.70
2022-10-03T22:46:39.686Z,2.30
2022-10-03T22:49:13.922Z,1.90
2022-10-03T22:51:43.074Z,2.20
2022-10-03T22:54:13.317Z,2.03
2022-10-03T22:56:54.704Z,2.40
2022-10-03T22:59:53.964Z,2.58
2022-10-03T23:02:27.835Z,2.25
2022-10-03T23:04:59.834Z,1.33
2022-10-03T23:07:32.235Z,2.33
2022-10-03T23:10:16.407Z,2.30
2022-10-03T23:13:05.538Z,2.70
2022-10-03T23:15:36.415Z,2.22
2022-10-03T23:18:39.869Z,2.10
2022-10-03T23:21:09.239Z,2.00
2022-10-03T23:23:50.213Z,2.08
2022-10-03T23:26:35.414Z,2.20
2022-10-03T23:31:55.432Z,2.13
2022-10-03T23:34:37.323Z,2.13
2022-10-03T23:37:16.219Z,2.22
2022-10-03T23:39:55.964Z,2.38
2022-10-03T23:42:31.462Z,2.40
2022-10-03T23:45:07.141Z,2.05
2022-10-03T23:47:39.016Z,2.55
2022-10-03T23:50:07.772Z,2.20
2022-10-03T23:52:44.522Z,2.40
2022-10-03T23:55:20.731Z,2.00
2022-10-03T23:57:48.005Z,2.20
